Latest Weather Observations for Jandakot

IDW60901

Issued at 5:55 pm WST Friday 19 September 2014 (issued every 10 minutes, with the page automatically refreshed every 10 minutes)

About weather observations | Map of Perth area stations | Latest observations for Perth area | Other Formats
Station Details ID: 009172 Name: JANDAKOT AERO Lat: -32.10 Lon: 115.88 Height: 30.0 m
Data from the previous 72 hours. | See also: Recent months at Jandakot
Date/Time
WST
Tmp

°C
App
Tmp
°C
Dew
Point
°C
Rel
Hum
%
Delta-T

°C
Wind Press
QNH
hPa
Press
MSL
hPa
Rain
since
9 am
mm
Dir
 
Spd
km/h
Gust
km/h
Spd
kts
Gust
kts
19/05:30pm 21.2 19.7 14.1 64 4.1 WSW 15 19 8 10 1019.9 1019.9 0.0
19/05:00pm 22.1 20.1 14.0 60 4.7 SW 17 20 9 11 1019.6 1019.6 0.0
19/04:30pm 22.8 20.9 14.1 58 5.1 WSW 17 24 9 13 1019.5 1019.5 0.0
19/04:00pm 23.2 20.9 14.0 56 5.4 SW 19 26 10 14 1019.5 1019.5 0.0
19/03:30pm 23.5 21.1 13.7 54 5.7 SW 19 22 10 12 1019.5 1019.5 0.0
19/03:00pm 24.1 21.7 12.8 49 6.5 SW 17 20 9 11 1019.6 1019.6 0.0
19/02:30pm 24.3 22.2 13.5 51 6.3 SW 17 24 9 13 1019.9 1019.9 0.0
19/02:00pm 24.2 22.5 13.6 51 6.2 SW 15 22 8 12 1020.2 1020.2 0.0
19/01:30pm 23.7 22.9 11.6 46 6.8 WSW 7 15 4 8 1020.5 1020.5 0.0
19/01:00pm 23.0 21.3 11.3 47 6.5 ESE 11 19 6 10 1021.0 1021.0 0.0
19/12:30pm 22.6 20.8 12.1 51 5.9 SSE 13 20 7 11 1021.5 1021.5 0.0
19/12:00pm 22.6 21.3 12.6 53 5.7 SSE 11 20 6 11 1022.0 1022.0 0.0
19/11:30am 21.6 20.6 12.4 55 5.2 SE 9 13 5 7 1022.3 1022.3 0.0
19/11:00am 20.5 19.3 12.9 61 4.3 S 11 15 6 8 1022.7 1022.7 0.0
19/10:30am 19.9 18.8 13.0 64 3.9 S 11 17 6 9 1022.8 1022.8 0.0
19/10:00am 19.5 18.4 13.1 66 3.6 S 11 20 6 11 1023.0 1023.0 0.0
19/09:30am 19.4 18.3 13.2 67 3.5 S 11 17 6 9 1023.2 1023.2 0.0
19/09:00am 18.9 18.5 14.0 73 2.8 S 9 13 5 7 1023.1 1023.1 0.0
19/08:30am 17.6 17.2 14.1 80 2.0 ESE 9 13 5 7 1023.2 1023.2 0.0
19/08:00am 15.4 15.1 13.4 88 1.1 ENE 7 9 4 5 1022.9 1022.9 0.0
19/07:30am 13.4 14.3 12.8 96 0.3 CALM 0 0 0 0 1022.6 1022.6 0.0
19/07:00am 10.6 10.7 10.0 96 0.3 CALM 0 7 0 4 1022.2 1022.2 0.0
19/06:30am 8.5 8.0 7.9 96 0.3 CALM 0 0 0 0 1021.8 1021.8 0.0
19/06:20am 8.2 7.6 7.6 96 0.3 CALM 0 0 0 0 1021.8 1021.8 0.0
19/06:09am 7.9 7.3 7.3 96 0.3 CALM 0 0 0 0 1021.6 1021.6 0.0
19/06:00am 7.6 6.9 6.9 95 0.3 CALM 0 0 0 0 1021.6 1021.6 0.0
19/05:43am 8.2 7.6 7.6 96 0.3 SE 0 0 0 0 1021.5 1021.5 0.0
19/05:37am 8.7 8.3 8.1 96 0.3 CALM 0 0 0 0 1021.5 1021.5 0.0
19/05:30am 8.9 8.5 8.3 96 0.3 CALM 0 0 0 0 1021.5 1021.5 0.0
19/05:00am 9.2 8.8 8.4 95 0.4 CALM 0 0 0 0 1021.1 1021.1 0.0
19/04:30am 9.5 9.2 8.5 93 0.5 CALM 0 0 0 0 1021.1 1021.1 0.0
19/04:00am 10.1 9.9 9.1 93 0.5 CALM 0 0 0 0 1021.0 1021.0 0.0
19/03:30am 10.5 10.4 9.5 93 0.5 CALM 0 0 0 0 1020.9 1020.9 0.0
19/03:00am 11.6 11.8 10.6 94 0.5 CALM 0 0 0 0 1020.9 1020.9 0.0
19/02:30am 12.8 13.4 11.9 94 0.5 CALM 0 0 0 0 1021.0 1021.0 0.0
19/02:00am 14.0 15.0 13.3 96 0.4 CALM 0 0 0 0 1021.1 1021.1 0.0
19/01:30am 13.9 14.5 13.0 94 0.5 SE 2 6 1 3 1021.0 1021.0 0.0
19/01:00am 13.6 13.4 12.9 95 0.4 SSE 6 7 3 4 1021.2 1021.2 0.0
19/12:30am 13.1 13.9 12.4 95 0.4 CALM 0 0 0 0 1021.3 1021.3 0.0
19/12:00am 11.0 10.3 10.0 93 0.5 SSE 4 6 2 3 1021.3 1021.3 0.0
 
Date/Time
WST
Tmp

°C
App
Tmp
°C
Dew
Point
°C
Rel
Hum
%
Delta-T

°C
Wind Press
QNH
hPa
Press
MSL
hPa
Rain
since
9 am
mm
Dir
 
Spd
km/h
Gust
km/h
Spd
kts
Gust
kts
18/11:30pm 11.6 10.6 10.2 91 0.7 S 6 7 3 4 1021.2 1021.2 0.0
18/11:00pm 12.5 11.6 11.2 92 0.7 ESE 7 9 4 5 1021.2 1021.2 0.0
18/10:30pm 13.2 12.1 11.9 92 0.7 S 9 9 5 5 1021.4 1021.4 0.0
18/10:00pm 15.1 14.2 12.7 85 1.3 S 9 11 5 6 1021.4 1021.4 0.0
18/09:30pm 15.6 14.9 13.1 85 1.4 S 9 13 5 7 1021.4 1021.4 0.0
18/09:00pm 15.6 14.5 13.1 85 1.4 SSW 11 13 6 7 1021.2 1021.2 0.0
18/08:30pm 16.3 15.3 13.3 82 1.7 SSW 11 15 6 8 1020.9 1020.9 0.0
18/08:00pm 16.8 15.4 13.4 80 1.9 SSW 13 20 7 11 1020.6 1020.6 0.0
18/07:30pm 16.7 14.9 13.3 80 1.9 SSW 15 20 8 11 1020.3 1020.3 0.0
18/07:00pm 16.8 15.1 13.6 81 1.8 SSW 15 20 8 11 1019.8 1019.8 0.0
18/06:30pm 17.2 15.2 14.0 81 1.8 SW 17 28 9 15 1019.4 1019.4 0.0
18/06:00pm 18.0 15.3 13.6 75 2.5 SSW 20 28 11 15 1019.0 1019.0 0.0
18/05:30pm 19.0 16.5 13.6 71 3.1 SSW 19 30 10 16 1018.4 1018.4 0.0
18/05:00pm 19.6 16.1 13.5 68 3.5 SSW 24 33 13 18 1018.1 1018.1 0.0
18/04:30pm 20.3 16.6 13.9 66 3.7 SSW 26 35 14 19 1017.8 1017.8 0.0
18/04:00pm 21.2 17.4 13.6 62 4.4 SSW 26 35 14 19 1017.5 1017.5 0.0
18/03:30pm 22.0 16.8 10.3 47 6.4 SW 28 35 15 19 1017.0 1017.0 0.0
18/03:00pm 23.1 18.2 8.6 39 7.7 SW 24 33 13 18 1016.9 1016.9 0.0
18/02:30pm 22.9 18.5 8.9 40 7.5 SW 22 33 12 18 1016.9 1016.9 0.0
18/02:00pm 23.6 19.5 11.5 46 6.8 SW 24 32 13 17 1016.8 1016.8 0.0
18/01:30pm 23.3 19.9 12.4 50 6.2 SW 22 30 12 16 1016.7 1016.7 0.0
18/01:00pm 22.6 18.9 14.0 58 5.0 WSW 26 35 14 19 1016.7 1016.7 0.0
18/12:30pm 23.2 20.4 14.4 57 5.2 WSW 22 28 12 15 1016.8 1016.8 0.0
18/12:00pm 23.6 21.1 13.4 52 5.9 WSW 19 30 10 16 1016.8 1016.8 0.0
18/11:30am 24.0 22.2 13.3 51 6.2 SW 15 26 8 14 1017.0 1017.0 0.0
18/11:00am 22.6 20.2 11.5 49 6.2 S 15 20 8 11 1017.4 1017.4 0.0
18/10:30am 21.6 19.8 10.9 50 5.9 S 11 19 6 10 1017.6 1017.6 0.0
18/10:00am 20.7 19.5 11.7 56 5.0 S 9 17 5 9 1017.7 1017.7 0.0
18/09:30am 19.4 18.3 11.8 61 4.2 S 9 13 5 7 1017.8 1017.8 0.0
18/09:00am 17.6 16.1 12.0 69 3.1 S 11 15 6 8 1017.9 1017.9 0.0
18/08:30am 16.2 15.1 11.8 75 2.4 S 9 13 5 7 1017.8 1017.8 0.0
18/08:00am 14.6 13.5 12.0 84 1.4 SSW 9 11 5 6 1017.7 1017.7 0.0
18/07:30am 12.4 10.7 11.3 93 0.6 SSW 11 13 6 7 1017.3 1017.3 0.0
18/07:00am 10.4 10.6 10.4 100 0.0 CALM 0 6 0 3 1016.9 1016.9 0.0
18/06:30am 9.4 7.9 9.0 97 0.2 SSW 7 9 4 5 1016.7 1016.7 0.0
18/06:00am 9.7 8.4 9.1 96 0.3 S 6 9 3 5 1016.6 1016.6 0.0
18/05:40am 9.2 7.8 8.8 97 0.2 S 6 9 3 5 1016.4 1016.4 0.0
18/05:30am 9.3 7.7 8.9 97 0.2 S 7 9 4 5 1016.4 1016.4 0.0
18/05:24am 9.5 8.1 8.7 95 0.4 S 6 7 3 4 1016.3 1016.3 0.0
18/05:00am 10.1 8.7 9.5 96 0.3 S 7 9 4 5 1016.2 1016.2 0.0
18/04:30am 11.0 9.3 10.0 93 0.5 S 9 11 5 6 1016.1 1016.1 0.0
18/04:00am 11.4 9.1 10.4 94 0.5 S 13 15 7 8 1015.9 1015.9 0.0
18/03:30am 11.3 9.7 10.3 94 0.5 S 9 11 5 6 1015.9 1015.9 0.0
18/03:00am 12.3 10.4 10.6 89 0.9 SSW 11 11 6 6 1016.0 1016.0 0.0
18/02:30am 12.7 10.2 11.2 91 0.8 SSW 15 19 8 10 1015.9 1015.9 0.0
18/02:00am 12.1 10.7 10.8 92 0.7 S 9 13 5 7 1015.9 1015.9 0.0
18/01:30am 12.5 10.8 11.2 92 0.7 S 11 13 6 7 1016.0 1016.0 0.0
18/01:00am 11.3 9.7 10.3 94 0.5 S 9 11 5 6 1016.2 1016.2 0.0
18/12:30am 12.2 11.1 10.7 90 0.8 SSW 7 9 4 5 1016.3 1016.3 0.0
18/12:00am 13.1 12.2 11.4 89 0.9 S 7 9 4 5 1016.4 1016.4 0.0
 
Date/Time
WST
Tmp

°C
App
Tmp
°C
Dew
Point
°C
Rel
Hum
%
Delta-T

°C
Wind Press
QNH
hPa
Press
MSL
hPa
Rain
since
9 am
mm
Dir
 
Spd
km/h
Gust
km/h
Spd
kts
Gust
kts
17/11:30pm 13.7 11.9 12.0 89 0.9 S 13 15 7 8 1016.5 1016.5 0.0
17/11:00pm 13.6 12.4 11.7 88 1.0 S 9 11 5 6 1016.6 1016.6 0.0
17/10:30pm 13.7 12.2 11.8 88 1.0 S 11 13 6 7 1016.8 1016.8 0.0
17/10:00pm 13.3 12.0 11.4 88 1.0 SSE 9 9 5 5 1017.0 1017.0 0.0
17/09:30pm 14.2 12.9 11.4 83 1.5 SSE 9 11 5 6 1017.0 1017.0 0.0
17/09:00pm 15.7 14.6 12.0 78 2.0 S 9 13 5 7 1016.8 1016.8 0.0
17/08:30pm 16.1 14.7 12.1 77 2.2 SSW 11 15 6 8 1016.5 1016.5 0.0
17/08:00pm 16.7 15.3 12.1 74 2.5 S 11 15 6 8 1016.2 1016.2 0.0
17/07:30pm 17.4 15.6 12.1 71 2.9 SSW 13 19 7 10 1015.8 1015.8 0.0
17/07:00pm 18.2 15.5 11.8 66 3.5 SSW 17 20 9 11 1015.4 1015.4 0.0
17/06:30pm 18.8 16.6 12.1 65 3.7 SSW 15 20 8 11 1015.1 1015.1 0.0
17/06:00pm 20.2 17.8 12.6 61 4.3 SSW 17 24 9 13 1014.8 1014.8 0.0
17/05:30pm 21.5 18.7 13.1 58 4.8 SSW 20 28 11 15 1014.6 1014.6 0.0
17/05:00pm 23.6 20.2 12.4 49 6.4 SSW 22 33 12 18 1014.1 1014.1 0.0
17/04:30pm 24.2 20.4 9.8 40 7.9 S 20 30 11 16 1013.7 1013.7 0.0
17/04:00pm 25.2 21.1 10.0 38 8.4 S 22 28 12 15 1013.2 1013.2 0.0
17/03:30pm 25.3 20.6 7.6 32 9.4 S 22 28 12 15 1013.1 1013.1 0.0
17/03:00pm 25.1 20.2 8.3 34 9.0 S 24 32 13 17 1013.2 1013.2 0.0
17/02:30pm 25.1 19.8 8.6 35 8.9 S 26 35 14 19 1013.4 1013.4 0.0
17/02:00pm 25.7 21.2 10.0 37 8.7 S 24 32 13 17 1013.6 1013.6 0.0
17/01:30pm 25.0 20.5 9.9 38 8.3 SSW 24 35 13 19 1013.9 1013.9 0.0
17/01:00pm 25.0 20.8 8.4 34 8.9 S 20 30 11 16 1013.9 1013.9 0.0
17/12:30pm 24.8 20.3 8.6 35 8.7 S 22 30 12 16 1014.2 1014.2 0.0
17/12:00pm 24.3 20.3 9.2 38 8.2 S 20 28 11 15 1014.6 1014.6 0.0
17/11:30am 24.3 20.0 7.9 35 8.7 S 20 26 11 14 1015.1 1015.1 0.0
17/11:00am 23.3 19.4 8.7 39 7.8 S 19 26 10 14 1015.6 1015.6 0.0
17/10:30am 22.2 19.9 10.3 46 6.5 SSE 13 17 7 9 1016.2 1016.2 0.0
17/10:00am 20.8 18.4 10.0 50 5.8 S 13 17 7 9 1016.7 1016.7 0.0
17/09:30am 19.4 16.9 9.8 53 5.1 S 13 17 7 9 1016.8 1016.8 0.0
17/09:00am 18.4 15.4 9.2 55 4.8 SE 15 19 8 10 1016.7 1016.7 0.0
17/08:30am 16.7 13.6 8.7 59 4.1 ESE 15 19 8 10 1016.7 1016.7 0.0
17/08:00am 15.4 12.6 8.5 63 3.5 SE 13 15 7 8 1016.8 1016.8 0.0
17/07:30am 12.9 10.5 8.5 74 2.2 SE 11 13 6 7 1016.4 1016.4 0.0
17/07:00am 12.6 9.8 8.4 75 2.1 E 13 17 7 9 1016.4 1016.4 0.0
17/06:30am 12.3 9.0 8.2 76 2.0 ESE 15 19 8 10 1016.5 1016.5 0.0
17/06:00am 11.7 9.2 8.2 79 1.7 ESE 11 13 6 7 1016.3 1016.3 0.0
17/05:30am 12.4 9.9 8.4 76 2.0 E 11 13 6 7 1016.0 1016.0 0.0
17/05:00am 12.7 9.5 8.3 74 2.2 ESE 15 17 8 9 1015.9 1015.9 0.0
17/04:30am 12.9 9.6 8.0 72 2.4 ESE 15 19 8 10 1015.9 1015.9 0.0
17/04:00am 13.0 9.8 8.4 73 2.3 ESE 15 20 8 11 1015.8 1015.8 0.0
17/03:30am 13.5 9.9 8.3 71 2.6 ESE 17 20 9 11 1015.9 1015.9 0.0
17/03:00am 13.9 10.3 8.3 69 2.8 ESE 17 22 9 12 1015.7 1015.7 0.0
17/02:30am 14.0 10.8 8.4 69 2.8 ESE 15 20 8 11 1015.7 1015.7 0.0
17/02:00am 14.5 11.6 8.3 66 3.1 ESE 13 19 7 10 1016.0 1016.0 0.0
17/01:30am 14.9 12.0 8.3 64 3.3 ESE 13 19 7 10 1016.2 1016.2 0.0
17/01:00am 15.4 12.2 8.3 62 3.6 ESE 15 19 8 10 1016.2 1016.2 0.0
17/12:30am 15.8 12.2 8.3 61 3.8 ESE 17 24 9 13 1016.1 1016.1 0.0
17/12:00am 16.5 12.5 8.2 58 4.2 ESE 19 24 10 13 1016.2 1016.2 0.0
 
Date/Time
WST
Tmp

°C
App
Tmp
°C
Dew
Point
°C
Rel
Hum
%
Delta-T

°C
Wind Press
QNH
hPa
Press
MSL
hPa
Rain
since
9 am
mm
Dir
 
Spd
km/h
Gust
km/h
Spd
kts
Gust
kts
16/11:30pm 16.1 13.3 8.7 61 3.8 ESE 13 17 7 9 1016.5 1016.5 0.0
16/11:00pm 15.8 12.7 9.0 64 3.5 ESE 15 19 8 10 1016.8 1016.8 0.0
16/10:30pm 16.5 13.4 8.9 61 3.9 ESE 15 22 8 12 1017.0 1017.0 0.0
16/10:00pm 16.3 13.7 9.4 63 3.6 ESE 13 20 7 11 1017.2 1017.2 0.0
16/09:30pm 16.3 14.1 9.4 63 3.6 ESE 11 15 6 8 1017.3 1017.3 0.0
16/09:00pm 16.5 14.3 9.4 63 3.7 ESE 11 20 6 11 1017.4 1017.4 0.0
16/08:30pm 16.1 14.0 9.8 66 3.3 SE 11 13 6 7 1017.4 1017.4 0.0
16/08:00pm 16.4 14.7 9.9 65 3.4 SE 9 11 5 6 1017.3 1017.3 0.0
16/07:30pm 16.8 14.8 10.2 65 3.5 ESE 11 15 6 8 1017.0 1017.0 0.0
16/07:00pm 17.7 15.8 10.4 62 3.9 SE 11 15 6 8 1016.9 1016.9 0.0
16/06:30pm 18.4 16.5 10.6 60 4.2 ESE 11 15 6 8 1016.5 1016.5 0.0
16/06:00pm 20.4 18.2 10.7 53 5.3 ESE 13 19 7 10 1016.3 1016.3 0.0

Latest Capital City Observations: Canberra | Sydney | Melbourne | Brisbane | Adelaide | Perth | Hobart | Darwin

Other Formats:

Comma delimited format used in spreadsheet applications
http://www.bom.gov.au/fwo/IDW60901/IDW60901.94609.axf

JavaScript Object Notation format (JSON) in row-major order
http://www.bom.gov.au/fwo/IDW60901/IDW60901.94609.json